Time;durP1;ratioP1;P1;durP2;ratioP2;P2;SDS_P1;SDS_P2;PMS_P1;PMS_P2;Temp;Humidity;BMP_temperature;BMP_pressure;BME280_temperature;BME280_humidity;BME280_pressure;Samples;Min_cycle;Max_cycle;Signal;HPM_P1;HPM_P2
2021/10/25 00:00:22;;;;;;;29.33;19.92;;;3.50;99.90;;;;;;5054445;28;20060;-67
2021/10/25 00:02:48;;;;;;;31.63;20.30;;;3.60;99.90;;;;;;5062271;28;20032;-67
2021/10/25 00:05:14;;;;;;;29.13;17.85;;;3.60;99.90;;;;;;5056985;28;20028;-66
2021/10/25 00:07:40;;;;;;;32.97;19.15;;;3.60;99.90;;;;;;5052737;28;20025;-67
2021/10/25 00:10:07;;;;;;;31.67;19.80;;;3.60;99.90;;;;;;5053311;28;20036;-66
2021/10/25 00:12:33;;;;;;;35.03;21.60;;;3.70;99.90;;;;;;5053169;28;20048;-67
2021/10/25 00:14:59;;;;;;;34.28;20.60;;;3.70;99.90;;;;;;5052834;28;20029;-67
2021/10/25 00:17:25;;;;;;;36.65;21.92;;;3.70;99.90;;;;;;5053221;28;20032;-67
2021/10/25 00:19:51;;;;;;;40.03;23.10;;;3.80;99.90;;;;;;5052020;28;20024;-66
2021/10/25 00:22:18;;;;;;;39.10;22.25;;;3.90;99.90;;;;;;5052926;28;20036;-67
2021/10/25 00:24:44;;;;;;;45.60;24.90;;;4.00;99.90;;;;;;5052391;28;20099;-66
2021/10/25 00:27:10;;;;;;;37.88;22.80;;;4.00;99.90;;;;;;5052978;28;20470;-67
2021/10/25 00:29:36;;;;;;;51.60;29.35;;;4.00;99.90;;;;;;5052534;28;20032;-66
2021/10/25 00:32:02;;;;;;;42.15;25.65;;;4.10;99.90;;;;;;5052652;28;20025;-67
2021/10/25 00:34:28;;;;;;;39.80;23.25;;;4.20;99.90;;;;;;5052940;28;20104;-67
2021/10/25 00:36:54;;;;;;;34.20;20.77;;;4.20;99.90;;;;;;5052020;28;20104;-66
2021/10/25 00:39:19;;;;;;;29.50;18.77;;;4.20;99.90;;;;;;5052949;28;20032;-66
2021/10/25 00:41:45;;;;;;;30.90;18.75;;;4.10;99.90;;;;;;5051752;28;20021;-67
2021/10/25 00:44:11;;;;;;;28.55;18.77;;;4.00;99.90;;;;;;5052188;28;20103;-67
2021/10/25 00:46:38;;;;;;;30.08;18.60;;;3.90;99.90;;;;;;5052001;28;20457;-66
2021/10/25 00:49:04;;;;;;;30.08;18.60;;;3.80;99.90;;;;;;5052454;28;20025;-67
2021/10/25 00:51:30;;;;;;;26.17;17.65;;;3.80;99.90;;;;;;5051475;28;20078;-67
2021/10/25 00:53:56;;;;;;;29.20;18.15;;;3.70;99.90;;;;;;5051517;28;20036;-66
2021/10/25 00:56:22;;;;;;;29.90;19.45;;;3.60;99.90;;;;;;5052342;28;20029;-67
2021/10/25 00:58:48;;;;;;;29.60;18.60;;;3.60;99.90;;;;;;5051646;28;20486;-66
2021/10/25 01:01:15;;;;;;;27.60;16.95;;;3.50;99.90;;;;;;5052716;28;20040;-67
2021/10/25 01:03:40;;;;;;;29.70;18.13;;;3.50;99.90;;;;;;5051818;28;20425;-66
2021/10/25 01:06:07;;;;;;;26.30;17.85;;;3.50;99.90;;;;;;5052012;28;20083;-67
2021/10/25 01:08:36;;;;;;;30.20;18.00;;;3.40;99.90;;;;;;5051616;28;20083;-66
2021/10/25 01:11:03;;;;;;;29.17;18.63;;;3.40;99.90;;;;;;5051595;28;20036;-66
2021/10/25 01:13:28;;;;;;;29.77;18.83;;;3.30;99.90;;;;;;5051684;28;20108;-66
2021/10/25 01:15:55;;;;;;;32.17;18.38;;;3.30;99.90;;;;;;5051311;28;20112;-66
2021/10/25 01:18:21;;;;;;;28.58;17.67;;;3.20;99.90;;;;;;5052021;28;20086;-66
2021/10/25 01:20:47;;;;;;;35.35;19.85;;;3.20;99.90;;;;;;5051076;28;20029;-67
2021/10/25 01:23:12;;;;;;;29.52;17.75;;;3.20;99.90;;;;;;5052277;28;20476;-67
2021/10/25 01:25:38;;;;;;;27.48;17.38;;;3.20;99.90;;;;;;5051207;28;20029;-67
2021/10/25 01:28:05;;;;;;;27.92;17.05;;;3.20;99.90;;;;;;5049621;28;20025;-67
2021/10/25 01:30:30;;;;;;;26.02;16.90;;;3.10;99.90;;;;;;5054955;28;20128;-67
2021/10/25 01:32:56;;;;;;;28.00;17.27;;;3.10;99.90;;;;;;5049836;28;20092;-67
2021/10/25 01:35:22;;;;;;;30.27;17.55;;;3.10;99.90;;;;;;5050963;28;20033;-67
2021/10/25 01:37:48;;;;;;;23.88;16.02;;;3.10;99.90;;;;;;5050162;28;20139;-67
2021/10/25 01:40:14;;;;;;;30.00;17.83;;;3.10;99.90;;;;;;5049241;28;20079;-67
2021/10/25 01:42:41;;;;;;;32.45;18.17;;;3.10;99.90;;;;;;5047521;28;20112;-67
2021/10/25 01:45:08;;;;;;;31.38;18.70;;;3.10;99.90;;;;;;5050503;28;20037;-68
2021/10/25 01:47:34;;;;;;;30.48;17.65;;;3.20;99.90;;;;;;5050555;28;20024;-68
2021/10/25 01:50:00;;;;;;;26.13;16.58;;;3.10;99.90;;;;;;5049445;28;20395;-68
2021/10/25 01:52:26;;;;;;;27.60;17.00;;;3.20;99.90;;;;;;5050298;28;20041;-68
2021/10/25 01:54:51;;;;;;;26.55;16.17;;;3.10;99.90;;;;;;5049258;28;20017;-68
2021/10/25 01:57:17;;;;;;;29.27;17.30;;;3.00;99.90;;;;;;5050206;28;20035;-68
2021/10/25 01:59:43;;;;;;;29.85;17.35;;;3.00;99.90;;;;;;5049724;28;20033;-67
2021/10/25 02:02:09;;;;;;;27.70;16.60;;;3.00;99.90;;;;;;5050287;28;20101;-67
2021/10/25 02:04:35;;;;;;;28.17;16.98;;;3.00;99.90;;;;;;5050027;28;20079;-67
2021/10/25 02:07:01;;;;;;;31.83;19.13;;;2.90;99.90;;;;;;5049670;28;20043;-68
2021/10/25 02:09:27;;;;;;;30.02;18.08;;;2.90;99.90;;;;;;5049523;28;20806;-68
2021/10/25 02:11:52;;;;;;;30.38;19.25;;;2.90;99.90;;;;;;5048676;28;20029;-67
2021/10/25 02:14:18;;;;;;;32.20;18.13;;;2.90;99.90;;;;;;5050048;28;20028;-67
2021/10/25 02:16:44;;;;;;;31.40;19.45;;;2.90;99.90;;;;;;5049259;28;20033;-67
2021/10/25 02:19:10;;;;;;;34.80;19.67;;;3.00;99.90;;;;;;5049219;28;20445;-67
2021/10/25 02:21:36;;;;;;;32.05;19.00;;;3.00;99.90;;;;;;5049133;28;20021;-67
2021/10/25 02:24:02;;;;;;;33.00;18.58;;;3.00;99.90;;;;;;5050009;28;20067;-67
2021/10/25 02:26:28;;;;;;;37.88;20.75;;;3.00;99.90;;;;;;5050811;28;20497;-68
2021/10/25 02:28:54;;;;;;;34.42;19.40;;;3.00;99.90;;;;;;5050252;28;20121;-68
2021/10/25 02:31:19;;;;;;;32.03;18.77;;;3.00;99.90;;;;;;5050464;28;20524;-68
2021/10/25 02:33:45;;;;;;;30.80;18.95;;;3.00;99.90;;;;;;5050196;28;20040;-67
2021/10/25 02:36:11;;;;;;;33.75;19.05;;;3.00;99.90;;;;;;5050880;28;20129;-68
2021/10/25 02:38:38;;;;;;;36.15;20.17;;;3.00;99.90;;;;;;5050987;28;20029;-67
2021/10/25 02:41:06;;;;;;;35.30;19.95;;;3.00;99.90;;;;;;5050887;28;20048;-67
2021/10/25 02:43:32;;;;;;;31.75;18.75;;;2.90;99.90;;;;;;5050437;28;20045;-67
2021/10/25 02:45:59;;;;;;;32.38;19.42;;;2.90;99.90;;;;;;5049744;28;20056;-67
2021/10/25 02:48:25;;;;;;;33.28;18.88;;;2.90;99.90;;;;;;5051393;28;20108;-67
2021/10/25 02:50:52;;;;;;;27.90;17.98;;;2.90;99.90;;;;;;5050206;28;20109;-67
2021/10/25 02:53:18;;;;;;;31.88;19.90;;;2.80;99.90;;;;;;5050734;28;20029;-67
2021/10/25 02:55:43;;;;;;;31.15;18.25;;;2.80;99.90;;;;;;5044102;28;20041;-67
2021/10/25 02:58:09;;;;;;;29.10;17.40;;;2.70;99.90;;;;;;5054654;28;20477;-67
2021/10/25 03:00:35;;;;;;;30.55;18.27;;;2.70;99.90;;;;;;5054845;28;20025;-68
2021/10/25 03:03:01;;;;;;;36.47;20.02;;;2.70;99.90;;;;;;5053419;28;20029;-68
2021/10/25 03:05:27;;;;;;;32.42;18.70;;;2.60;99.90;;;;;;5054367;28;20025;-67
2021/10/25 03:07:53;;;;;;;33.30;18.98;;;2.60;99.90;;;;;;5053464;28;20036;-68
2021/10/25 03:10:18;;;;;;;31.70;19.80;;;2.60;99.90;;;;;;5054571;28;20029;-67
2021/10/25 03:12:46;;;;;;;37.65;20.58;;;2.60;99.90;;;;;;5053489;28;20033;-68
2021/10/25 03:15:13;;;;;;;34.95;19.45;;;2.60;99.90;;;;;;5053803;28;20090;-68
2021/10/25 03:17:38;;;;;;;32.47;20.17;;;2.60;99.90;;;;;;5054237;28;20017;-68
2021/10/25 03:20:04;;;;;;;29.88;18.40;;;2.60;99.90;;;;;;5053794;28;20029;-68
2021/10/25 03:22:30;;;;;;;33.05;18.85;;;2.60;99.90;;;;;;5054454;28;20029;-67
2021/10/25 03:24:56;;;;;;;31.98;18.90;;;2.60;99.90;;;;;;5053379;28;20029;-67
2021/10/25 03:27:22;;;;;;;29.75;18.40;;;2.60;99.90;;;;;;5054281;28;20057;-67
2021/10/25 03:29:48;;;;;;;28.80;18.65;;;2.60;99.90;;;;;;5053486;28;20045;-67
2021/10/25 03:32:14;;;;;;;29.75;18.67;;;2.50;99.90;;;;;;5054189;28;20033;-67
2021/10/25 03:34:39;;;;;;;27.85;17.75;;;2.50;99.90;;;;;;5053746;28;20455;-67
2021/10/25 03:37:06;;;;;;;31.40;17.52;;;2.50;99.90;;;;;;5053678;28;20060;-68
2021/10/25 03:39:35;;;;;;;31.42;19.20;;;2.50;99.90;;;;;;5055283;28;20056;-67
2021/10/25 03:42:04;;;;;;;33.15;18.83;;;2.40;99.90;;;;;;5066324;28;20599;-67
2021/10/25 03:44:46;;;;;;;34.80;20.13;;;2.50;99.90;;;;;;5073956;28;20093;-68
2021/10/25 03:47:24;;;;;;;31.08;19.05;;;2.50;99.90;;;;;;5054034;28;20279;-67
2021/10/25 03:49:58;;;;;;;36.92;20.08;;;2.50;99.90;;;;;;5052723;28;20367;-67
2021/10/25 03:55:06;;;;;;;32.92;19.27;;;2.60;99.90;;;;;;5052545;28;20108;-67
2021/10/25 04:25:25;;;;;;;23.75;15.63;;;2.90;99.90;;;;;;5052097;28;20402;-67
2021/10/25 04:29:54;;;;;;;21.48;14.73;;;2.80;99.90;;;;;;5052027;28;20043;-67
2021/10/25 04:32:20;;;;;;;21.80;15.60;;;2.80;99.90;;;;;;5052774;28;20033;-67
2021/10/25 04:34:46;;;;;;;22.23;14.40;;;2.70;99.90;;;;;;5051954;28;20041;-67
2021/10/25 04:37:11;;;;;;;24.35;15.50;;;2.60;99.90;;;;;;5052508;28;20025;-68
2021/10/25 04:39:37;;;;;;;20.13;14.68;;;2.60;99.90;;;;;;5052791;28;20417;-67
2021/10/25 04:42:03;;;;;;;28.00;16.30;;;2.50;99.90;;;;;;5051575;28;20637;-67
2021/10/25 04:44:30;;;;;;;27.98;16.00;;;2.50;99.90;;;;;;5052000;28;20080;-67
2021/10/25 04:46:56;;;;;;;23.48;16.10;;;2.50;99.90;;;;;;5051760;28;20025;-67
2021/10/25 04:49:21;;;;;;;28.92;18.15;;;2.60;99.90;;;;;;5052042;28;20036;-68
2021/10/25 04:51:47;;;;;;;27.00;16.33;;;2.70;99.90;;;;;;5051760;28;20483;-67
2021/10/25 04:54:13;;;;;;;24.17;15.43;;;2.80;99.90;;;;;;5052097;28;20033;-67
2021/10/25 04:56:38;;;;;;;23.92;15.30;;;2.80;99.90;;;;;;5052446;28;20463;-67
2021/10/25 04:59:04;;;;;;;20.88;14.32;;;2.80;99.90;;;;;;5051608;28;20112;-67
2021/10/25 05:01:30;;;;;;;23.98;14.70;;;2.80;99.90;;;;;;5051838;28;20039;-67
2021/10/25 05:03:55;;;;;;;23.40;16.05;;;2.80;99.90;;;;;;5051133;28;20021;-67
2021/10/25 05:06:22;;;;;;;23.27;15.85;;;2.80;99.90;;;;;;5052227;28;20032;-67
2021/10/25 05:08:48;;;;;;;26.58;15.52;;;2.80;99.90;;;;;;5050920;28;20037;-67
2021/10/25 05:11:14;;;;;;;24.77;15.07;;;2.80;99.90;;;;;;5052268;28;20385;-68
2021/10/25 05:13:40;;;;;;;21.08;14.63;;;2.90;99.90;;;;;;5051987;28;20041;-67
2021/10/25 05:16:07;;;;;;;22.20;14.38;;;2.90;99.90;;;;;;5051641;28;20064;-67
2021/10/25 05:18:33;;;;;;;22.38;14.57;;;2.80;99.90;;;;;;5051469;28;20025;-67
2021/10/25 05:20:59;;;;;;;23.00;13.57;;;2.80;99.90;;;;;;5051204;28;20082;-68
2021/10/25 05:23:26;;;;;;;22.08;14.68;;;2.90;99.90;;;;;;5052144;28;20515;-69
2021/10/25 05:25:52;;;;;;;19.75;14.23;;;2.90;99.90;;;;;;5051321;28;20058;-67
2021/10/25 05:28:18;;;;;;;19.77;12.88;;;2.90;99.90;;;;;;5051931;28;20102;-68
2021/10/25 05:30:45;;;;;;;19.60;13.52;;;2.80;99.90;;;;;;5050106;28;20426;-67
2021/10/25 05:33:11;;;;;;;20.00;13.98;;;2.80;99.90;;;;;;5051648;28;20387;-67
2021/10/25 05:35:38;;;;;;;21.95;13.75;;;2.80;99.90;;;;;;5051685;28;20029;-68
2021/10/25 05:38:05;;;;;;;18.65;13.45;;;2.70;99.90;;;;;;5051021;28;20055;-68
2021/10/25 05:40:31;;;;;;;21.85;14.45;;;2.70;99.90;;;;;;5051676;28;20121;-68
2021/10/25 05:42:58;;;;;;;19.02;14.40;;;2.70;99.90;;;;;;5051545;28;20033;-68
2021/10/25 05:45:24;;;;;;;21.08;13.85;;;2.70;99.90;;;;;;5051833;28;20064;-68
2021/10/25 05:47:50;;;;;;;20.92;13.70;;;2.60;99.90;;;;;;5051019;28;20056;-68
2021/10/25 05:50:16;;;;;;;21.80;13.70;;;2.60;99.90;;;;;;5051556;28;20537;-68
2021/10/25 05:52:41;;;;;;;25.65;15.43;;;2.60;99.90;;;;;;5050457;28;20029;-68
2021/10/25 05:55:08;;;;;;;27.00;15.43;;;2.60;99.90;;;;;;5050733;28;20057;-68
2021/10/25 05:57:34;;;;;;;24.80;15.27;;;2.60;99.90;;;;;;5050943;28;20057;-68
2021/10/25 06:00:01;;;;;;;23.17;15.27;;;2.60;99.90;;;;;;5050425;28;20489;-68
2021/10/25 06:04:52;;;;;;;21.17;13.65;;;2.70;99.90;;;;;;5050468;28;20051;-68
2021/10/25 06:07:18;;;;;;;23.48;15.05;;;2.80;99.90;;;;;;5051493;28;20441;-67
2021/10/25 06:09:47;;;;;;;23.10;14.73;;;2.80;99.90;;;;;;5050466;28;20382;-68
2021/10/25 06:12:17;;;;;;;23.10;13.63;;;2.70;99.90;;;;;;5051135;28;20061;-68
2021/10/25 06:14:45;;;;;;;18.65;12.38;;;2.80;99.90;;;;;;5051081;28;20121;-68
2021/10/25 06:17:22;;;;;;;22.55;14.27;;;2.70;99.90;;;;;;5050914;28;20466;-69
2021/10/25 06:19:48;;;;;;;20.33;13.45;;;2.70;99.90;;;;;;5049960;28;20078;-68
2021/10/25 06:22:18;;;;;;;18.83;12.55;;;2.70;99.90;;;;;;5050721;28;20025;-76
2021/10/25 06:24:45;;;;;;;18.85;12.77;;;2.60;99.90;;;;;;5050932;28;20036;-68
2021/10/25 06:27:11;;;;;;;21.75;14.32;;;2.70;99.90;;;;;;5050939;28;20124;-68
2021/10/25 06:29:37;;;;;;;21.80;14.40;;;2.70;99.90;;;;;;5054080;28;20052;-68
2021/10/25 06:32:03;;;;;;;22.23;14.13;;;2.70;99.90;;;;;;5054726;28;20071;-67
2021/10/25 06:34:36;;;;;;;19.88;13.45;;;2.70;99.90;;;;;;5054896;28;20029;-68
2021/10/25 06:37:03;;;;;;;22.35;13.82;;;2.70;99.90;;;;;;5054079;28;20437;-67
2021/10/25 06:39:39;;;;;;;21.92;14.90;;;2.70;99.90;;;;;;5055061;28;20029;-67
2021/10/25 06:42:06;;;;;;;22.98;14.07;;;2.80;99.90;;;;;;5054582;28;20577;-67
2021/10/25 06:44:36;;;;;;;22.63;14.77;;;2.80;99.90;;;;;;5049009;28;20897;-66
2021/10/25 06:47:02;;;;;;;23.10;13.73;;;2.80;99.90;;;;;;5054441;28;20029;-66
2021/10/25 06:49:28;;;;;;;20.83;13.80;;;2.90;99.90;;;;;;5055809;28;20394;-66
2021/10/25 06:51:56;;;;;;;20.90;13.60;;;3.00;99.90;;;;;;5054473;28;20064;-66
2021/10/25 06:54:21;;;;;;;18.42;12.75;;;3.00;99.90;;;;;;5053884;28;20394;-67
2021/10/25 06:56:48;;;;;;;18.60;13.35;;;3.20;99.90;;;;;;5052706;28;20035;-66
2021/10/25 06:59:15;;;;;;;18.63;13.65;;;3.20;99.90;;;;;;5054352;28;20025;-68
2021/10/25 07:01:40;;;;;;;19.10;12.15;;;3.30;99.90;;;;;;5054122;28;20025;-67
2021/10/25 07:04:06;;;;;;;15.38;11.90;;;3.30;99.90;;;;;;5053182;28;20029;-67
2021/10/25 07:06:33;;;;;;;17.13;11.95;;;3.30;99.90;;;;;;5053920;28;20440;-67
2021/10/25 07:09:01;;;;;;;22.17;12.05;;;3.30;99.90;;;;;;5053293;28;20431;-66
2021/10/25 07:11:27;;;;;;;16.40;12.07;;;3.30;99.90;;;;;;5053782;28;20029;-67
2021/10/25 07:13:53;;;;;;;18.98;12.82;;;3.20;99.90;;;;;;5052854;28;20048;-67
2021/10/25 07:16:42;;;;;;;17.90;11.90;;;3.20;99.90;;;;;;5053472;28;20055;-67
2021/10/25 07:19:25;;;;;;;18.35;12.02;;;3.30;99.90;;;;;;5052768;28;20028;-67
2021/10/25 08:08:39;;;;;;;9.27;7.50;;;6.40;99.90;;;;;;5052228;28;20494;-68
2021/10/25 08:11:08;;;;;;;14.98;9.07;;;6.60;99.90;;;;;;5052419;28;20037;-67
2021/10/25 08:13:46;;;;;;;13.90;9.60;;;6.90;99.90;;;;;;5052553;28;20094;-67
2021/10/25 08:21:11;;;;;;;12.10;8.07;;;7.50;99.90;;;;;;5051985;28;20040;-67
2021/10/25 08:23:38;;;;;;;12.40;8.15;;;7.50;99.90;;;;;;5052758;28;20040;-67
2021/10/25 08:26:05;;;;;;;14.38;8.18;;;7.60;99.90;;;;;;5051890;28;20048;-67
2021/10/25 08:28:31;;;;;;;11.20;8.38;;;7.80;99.90;;;;;;5052541;28;20029;-68
2021/10/25 08:30:58;;;;;;;12.07;8.18;;;7.90;99.90;;;;;;5051501;28;20040;-67
2021/10/25 08:36:09;;;;;;;12.05;8.35;;;8.30;99.90;;;;;;5051744;28;20055;-67
2021/10/25 08:41:21;;;;;;;14.65;8.27;;;8.50;99.90;;;;;;5052802;28;20501;-67
2021/10/25 08:43:49;;;;;;;16.35;8.65;;;8.50;99.90;;;;;;5051241;28;20051;-68
2021/10/25 08:46:17;;;;;;;12.55;7.78;;;8.50;99.90;;;;;;5051541;28;20087;-68
2021/10/25 08:48:44;;;;;;;12.77;9.05;;;8.60;99.90;;;;;;5052212;28;20033;-67
2021/10/25 08:51:10;;;;;;;15.38;9.68;;;8.60;99.90;;;;;;5051290;28;20033;-68
2021/10/25 08:53:36;;;;;;;13.98;9.00;;;8.60;99.90;;;;;;5051033;28;20040;-68
2021/10/25 08:56:03;;;;;;;12.07;8.25;;;8.60;99.90;;;;;;5051425;28;20365;-69
2021/10/25 08:58:33;;;;;;;12.55;8.02;;;8.60;99.90;;;;;;5051626;28;20025;-67
2021/10/25 09:00:59;;;;;;;10.70;7.75;;;8.60;99.90;;;;;;5050694;28;20181;-67
2021/10/25 09:03:26;;;;;;;11.00;8.13;;;8.60;99.90;;;;;;5044014;28;20033;-67
2021/10/25 09:06:02;;;;;;;14.35;8.68;;;8.60;99.90;;;;;;5050901;28;20029;-67
2021/10/25 09:08:29;;;;;;;11.88;8.25;;;8.70;99.90;;;;;;5052232;28;20107;-67
2021/10/25 09:10:57;;;;;;;13.50;8.50;;;8.70;99.90;;;;;;5051250;28;20107;-67
2021/10/25 09:13:27;;;;;;;14.40;8.75;;;8.80;99.90;;;;;;5051820;28;20033;-68
2021/10/25 09:15:58;;;;;;;24.27;11.40;;;8.90;99.90;;;;;;5051489;28;20120;-67
2021/10/25 09:18:30;;;;;;;12.88;8.50;;;8.80;99.90;;;;;;5052226;28;20424;-68
2021/10/25 09:21:06;;;;;;;13.15;9.30;;;8.80;99.90;;;;;;5050691;28;20032;-67
2021/10/25 09:23:39;;;;;;;14.00;10.02;;;8.80;99.90;;;;;;5052064;28;20103;-67
2021/10/25 09:26:10;;;;;;;14.23;8.82;;;8.80;99.90;;;;;;5051186;28;20028;-67
2021/10/25 09:28:48;;;;;;;14.40;9.73;;;8.70;99.90;;;;;;5051790;28;20493;-67
2021/10/25 09:31:23;;;;;;;16.45;9.80;;;8.70;99.90;;;;;;5050881;28;20053;-68
2021/10/25 09:33:55;;;;;;;15.57;8.45;;;8.80;99.90;;;;;;5051868;28;20048;-67
2021/10/25 09:36:24;;;;;;;12.43;8.57;;;8.80;99.90;;;;;;5052006;28;20029;-68
2021/10/25 09:49:44;;;;;;;16.30;8.50;;;9.80;99.90;;;;;;5071216;28;20077;-68
2021/10/25 09:52:09;;;;;;;14.13;8.65;;;9.90;99.90;;;;;;5069291;28;20037;-68
2021/10/25 09:54:35;;;;;;;13.63;7.30;;;10.10;99.90;;;;;;5036563;28;20459;-67
2021/10/25 09:59:50;;;;;;;14.95;8.35;;;10.30;99.90;;;;;;5034854;28;20429;-68
2021/10/25 10:02:18;;;;;;;10.05;8.13;;;10.50;99.90;;;;;;5030797;28;20030;-68
2021/10/25 10:04:48;;;;;;;14.60;8.23;;;10.60;99.90;;;;;;5045339;28;20053;-68
2021/10/25 10:07:18;;;;;;;11.60;7.72;;;10.80;99.90;;;;;;5048795;28;20112;-68
2021/10/25 10:09:46;;;;;;;9.07;7.15;;;10.90;99.90;;;;;;5037211;28;20123;-68
2021/10/25 10:12:20;;;;;;;20.33;8.05;;;11.00;99.90;;;;;;5050108;28;20406;-68
2021/10/25 10:14:51;;;;;;;13.70;7.70;;;11.20;99.90;;;;;;5045749;28;20449;-68
2021/10/25 10:17:30;;;;;;;11.02;7.53;;;11.30;99.90;;;;;;5050055;28;20028;-69
2021/10/25 10:20:01;;;;;;;12.38;7.88;;;11.70;99.90;;;;;;5049516;28;20378;-67
2021/10/25 10:22:29;;;;;;;11.30;8.35;;;11.70;99.90;;;;;;5051126;28;20036;-68
2021/10/25 10:24:57;;;;;;;12.98;8.00;;;;;;;;;;5050326;28;20116;-68
2021/10/25 10:27:24;;;;;;;17.17;7.75;;;;;;;;;;5051272;28;20033;-68
2021/10/25 10:29:57;;;;;;;12.45;7.35;;;12.40;99.90;;;;;;5050648;28;20114;-68
2021/10/25 10:32:26;;;;;;;11.80;7.78;;;12.50;99.90;;;;;;5050894;28;20037;-67
2021/10/25 10:34:55;;;;;;;11.18;6.88;;;;;;;;;;5050698;28;20056;-69
2021/10/25 10:37:25;;;;;;;9.85;7.15;;;;;;;;;;5050605;28;20064;-69
2021/10/25 10:40:22;;;;;;;11.90;8.25;;;;;;;;;;5051388;28;20075;-70
2021/10/25 10:42:52;;;;;;;12.75;6.40;;;12.70;99.90;;;;;;5049529;28;20094;-69
2021/10/25 10:45:21;;;;;;;9.63;6.45;;;12.80;99.90;;;;;;5050403;28;20137;-69
2021/10/25 10:48:03;;;;;;;11.90;6.47;;;12.80;99.90;;;;;;5050823;28;20108;-69
2021/10/25 10:50:46;;;;;;;11.55;7.13;;;12.90;99.90;;;;;;5051254;28;20029;-70
2021/10/25 10:53:13;;;;;;;13.43;7.38;;;;;;;;;;5049931;28;20025;-69
2021/10/25 10:55:43;;;;;;;9.50;6.68;;;13.10;98.10;;;;;;5050411;28;20198;-69
2021/10/25 10:58:26;;;;;;;11.38;7.03;;;13.10;98.10;;;;;;5049700;28;20564;-69
2021/10/25 11:01:06;;;;;;;11.85;6.78;;;13.20;97.20;;;;;;5050343;28;20107;-68
2021/10/25 11:03:32;;;;;;;10.90;6.97;;;13.30;97.30;;;;;;5050314;28;20060;-68
2021/10/25 11:06:11;;;;;;;9.35;6.88;;;13.10;97.40;;;;;;5049905;28;20029;-69
2021/10/25 11:08:45;;;;;;;13.18;7.15;;;13.10;97.40;;;;;;5050553;28;20033;-69
2021/10/25 11:11:20;;;;;;;10.45;6.82;;;13.00;98.10;;;;;;5050118;28;20109;-70
2021/10/25 11:13:51;;;;;;;12.07;6.82;;;13.00;97.60;;;;;;5049873;28;20093;-68
2021/10/25 11:16:28;;;;;;;9.70;6.47;;;13.10;98.70;;;;;;5051677;28;20040;-67
2021/10/25 11:18:57;;;;;;;11.38;7.53;;;13.30;97.50;;;;;;5054279;28;20383;-68
2021/10/25 11:21:30;;;;;;;11.57;7.18;;;13.40;98.20;;;;;;5053965;28;20029;-69
2021/10/25 11:24:16;;;;;;;9.50;6.68;;;13.60;97.10;;;;;;5053555;28;20446;-68
2021/10/25 11:27:01;;;;;;;12.10;6.85;;;13.80;95.30;;;;;;5054345;28;20108;-70
2021/10/25 11:29:33;;;;;;;10.13;6.90;;;13.90;95.60;;;;;;5053610;28;20029;-69
2021/10/25 11:32:06;;;;;;;8.18;5.97;;;14.00;95.00;;;;;;5053308;28;20033;-68
2021/10/25 11:34:45;;;;;;;10.35;6.32;;;14.20;93.70;;;;;;5054032;28;20235;-70
2021/10/25 11:37:13;;;;;;;12.32;6.50;;;14.20;93.80;;;;;;5053254;28;20211;-69
2021/10/25 11:39:46;;;;;;;11.00;6.07;;;14.20;94.00;;;;;;5053688;28;20033;-70
2021/10/25 11:42:18;;;;;;;15.18;6.25;;;14.20;93.20;;;;;;5053065;28;20029;-68
2021/10/25 11:44:50;;;;;;;15.43;7.20;;;14.10;93.40;;;;;;5053368;28;20049;-69
2021/10/25 11:47:26;;;;;;;8.25;5.78;;;14.00;93.70;;;;;;5052809;28;20105;-69
2021/10/25 11:50:28;;;;;;;11.15;6.55;;;14.00;93.50;;;;;;5042998;28;20025;-70
2021/10/25 11:53:05;;;;;;;11.52;6.60;;;14.00;93.60;;;;;;5049644;28;20056;-69
2021/10/25 11:55:36;;;;;;;10.35;6.30;;;14.00;94.00;;;;;;5053438;28;20029;-69
2021/10/25 11:58:14;;;;;;;10.38;5.80;;;14.00;94.10;;;;;;5052111;28;20029;-69
2021/10/25 12:00:44;;;;;;;10.82;5.95;;;14.10;94.00;;;;;;5053673;28;20032;-69
2021/10/25 12:03:19;;;;;;;13.55;6.85;;;14.20;93.40;;;;;;5052044;28;20033;-68
2021/10/25 12:05:45;;;;;;;12.55;6.32;;;14.30;94.30;;;;;;5053177;28;20112;-69
2021/10/25 12:08:13;;;;;;;8.10;5.50;;;14.40;93.70;;;;;;5052281;28;20060;-69
2021/10/25 12:10:40;;;;;;;11.10;6.45;;;14.50;93.40;;;;;;5052233;28;20087;-69
2021/10/25 12:13:08;;;;;;;9.57;6.03;;;14.70;92.60;;;;;;5051875;28;20036;-68
2021/10/25 12:15:37;;;;;;;9.75;5.55;;;14.80;92.30;;;;;;5052979;28;20033;-68
2021/10/25 12:18:06;;;;;;;10.20;4.88;;;15.20;91.10;;;;;;5052140;28;20025;-67
2021/10/25 12:20:37;;;;;;;9.43;5.38;;;15.40;90.90;;;;;;5053043;28;20082;-70
2021/10/25 12:23:05;;;;;;;7.60;5.50;;;15.90;89.70;;;;;;5052254;28;20141;-68
2021/10/25 12:25:33;;;;;;;6.93;4.72;;;16.30;88.10;;;;;;5053126;28;20462;-68
2021/10/25 12:28:08;;;;;;;8.10;4.78;;;16.80;84.50;;;;;;5052133;28;20029;-70
2021/10/25 12:30:33;;;;;;;6.93;5.50;;;17.30;80.40;;;;;;5052921;28;20190;-70
2021/10/25 12:33:02;;;;;;;7.50;4.35;;;17.80;78.00;;;;;;5052573;28;20517;-69
2021/10/25 12:35:41;;;;;;;9.32;4.65;;;18.20;75.70;;;;;;5052198;28;20071;-69
2021/10/25 12:38:11;;;;;;;8.07;4.90;;;18.60;75.10;;;;;;5051990;28;20017;-68
2021/10/25 12:40:45;;;;;;;8.52;4.47;;;18.90;71.20;;;;;;5053027;28;20116;-69
2021/10/25 12:43:12;;;;;;;6.68;4.32;;;18.70;71.60;;;;;;5051097;28;20045;-69
2021/10/25 12:45:42;;;;;;;9.05;4.28;;;18.40;71.90;;;;;;5052498;28;20029;-69
2021/10/25 12:48:17;;;;;;;6.05;4.38;;;17.90;73.20;;;;;;5051474;28;20108;-69
2021/10/25 12:50:50;;;;;;;6.55;4.40;;;17.50;74.50;;;;;;5052479;28;20036;-69
2021/10/25 12:53:16;;;;;;;7.20;4.07;;;17.20;74.30;;;;;;5051417;28;20037;-69
2021/10/25 12:55:56;;;;;;;7.38;4.55;;;16.90;75.70;;;;;;5052128;28;20096;-69
2021/10/25 12:58:24;;;;;;;8.65;4.30;;;16.80;76.60;;;;;;5051389;28;20052;-69
2021/10/25 13:00:50;;;;;;;7.63;3.90;;;16.70;75.80;;;;;;5052353;28;20386;-68
2021/10/25 13:03:16;;;;;;;7.18;4.65;;;16.80;76.00;;;;;;5051302;28;20060;-69
2021/10/25 13:05:49;;;;;;;7.03;4.60;;;17.00;74.50;;;;;;5051607;28;20056;-69
2021/10/25 13:08:15;;;;;;;6.70;4.30;;;17.30;73.60;;;;;;5051260;28;20087;-69
2021/10/25 13:10:43;;;;;;;8.48;4.47;;;17.80;72.70;;;;;;5052117;28;20063;-69
2021/10/25 13:13:14;;;;;;;5.90;3.92;;;18.10;71.20;;;;;;5050907;28;20025;-69
2021/10/25 13:15:42;;;;;;;7.95;4.43;;;18.50;70.50;;;;;;5051715;28;20040;-69
2021/10/25 13:18:09;;;;;;;9.30;4.45;;;18.90;68.60;;;;;;5051381;28;20049;-68
2021/10/25 13:20:40;;;;;;;8.13;3.85;;;19.20;66.30;;;;;;5051957;28;20033;-69
2021/10/25 13:23:07;;;;;;;6.90;3.95;;;19.30;66.50;;;;;;5051050;28;20036;-68
2021/10/25 13:25:33;;;;;;;6.68;3.97;;;19.50;66.70;;;;;;5052674;28;20026;-69
2021/10/25 13:28:00;;;;;;;5.88;3.25;;;19.80;65.80;;;;;;5062438;28;20021;-69
2021/10/25 13:30:27;;;;;;;5.63;3.30;;;20.00;64.20;;;;;;5051075;28;20040;-68
2021/10/25 13:32:53;;;;;;;5.03;3.10;;;20.20;62.80;;;;;;5052000;28;20029;-69
2021/10/25 13:35:20;;;;;;;6.53;2.85;;;20.20;61.90;;;;;;5050992;28;20025;-69
2021/10/25 13:37:52;;;;;;;6.10;2.78;;;20.10;62.50;;;;;;5051432;28;20032;-69
2021/10/25 13:40:19;;;;;;;5.68;3.58;;;20.00;61.90;;;;;;5051058;28;20028;-69
2021/10/25 13:42:45;;;;;;;6.05;3.28;;;19.80;61.80;;;;;;5051443;28;20052;-69
2021/10/25 13:45:11;;;;;;;5.38;3.35;;;19.50;62.30;;;;;;5050600;28;20098;-68
2021/10/25 13:47:37;;;;;;;9.52;3.78;;;19.20;62.70;;;;;;5051088;28;20471;-69
2021/10/25 13:50:09;;;;;;;8.55;4.22;;;18.80;62.90;;;;;;5050674;28;20035;-69
2021/10/25 13:52:36;;;;;;;7.22;4.03;;;18.40;64.30;;;;;;5051529;28;20120;-68
2021/10/25 13:55:06;;;;;;;8.10;4.00;;;18.00;65.10;;;;;;5051435;28;20021;-69
2021/10/25 13:57:37;;;;;;;8.00;3.33;;;17.80;66.60;;;;;;5050785;28;20433;-70
2021/10/25 14:00:11;;;;;;;7.15;3.22;;;17.50;66.80;;;;;;5050792;28;20389;-69
2021/10/25 14:02:38;;;;;;;6.60;3.20;;;17.40;67.30;;;;;;5050785;28;20048;-69
2021/10/25 14:05:07;;;;;;;5.03;3.30;;;17.20;68.50;;;;;;5049887;28;20029;-69
2021/10/25 14:07:36;;;;;;;6.85;2.97;;;17.10;69.60;;;;;;5051196;28;20040;-70
2021/10/25 14:12:56;;;;;;;2.90;2.35;;;17.00;69.40;;;;;;5049389;28;20033;-69
2021/10/25 14:15:28;;;;;;;2.85;2.20;;;17.00;68.40;;;;;;5049759;28;20040;-68
2021/10/25 14:17:56;;;;;;;2.28;2.08;;;16.90;68.40;;;;;;5051270;28;20120;-68
2021/10/25 14:20:26;;;;;;;2.10;1.90;;;16.90;68.90;;;;;;5050363;28;20029;-70
2021/10/25 14:22:55;;;;;;;3.27;2.60;;;16.90;69.10;;;;;;5051581;28;20024;-69
2021/10/25 14:25:21;;;;;;;5.07;2.72;;;16.80;70.30;;;;;;5050584;28;20040;-69
2021/10/25 14:27:46;;;;;;;3.75;2.15;;;16.70;70.30;;;;;;5051066;28;20021;-68
2021/10/25 14:30:12;;;;;;;4.40;2.25;;;16.60;69.90;;;;;;5050108;28;20040;-68
2021/10/25 14:32:38;;;;;;;3.53;1.88;;;16.50;70.80;;;;;;5051218;28;20033;-69
2021/10/25 14:35:10;;;;;;;6.53;2.33;;;16.30;70.40;;;;;;5050876;28;20082;-69
2021/10/25 14:37:40;;;;;;;3.53;2.30;;;16.20;70.70;;;;;;5051025;28;20027;-69